Time;durP1;ratioP1;P1;durP2;ratioP2;P2;SDS_P1;SDS_P2;PMS_P1;PMS_P2;Temp;Humidity;BMP_temperature;BMP_pressure;BME280_temperature;BME280_humidity;BME280_pressure;Samples;Min_cycle;Max_cycle;Signal;HPM_P1;HPM_P2
2021/06/19 00:01:45;;;;;;;9.65;3.40;;;;;;;22.77;66.17;101457.55;1681536;84;21479;-54
2021/06/19 00:04:12;;;;;;;9.93;4.05;;;;;;;22.78;66.23;101454.78;1666697;85;21081;-53
2021/06/19 00:06:38;;;;;;;11.45;4.40;;;;;;;22.81;66.29;101453.75;1677923;84;21102;-55
2021/06/19 00:09:05;;;;;;;7.97;3.75;;;;;;;22.82;66.24;101448.81;1679460;85;21099;-55
2021/06/19 00:11:33;;;;;;;7.95;3.52;;;;;;;22.84;66.33;101450.89;1672760;84;21560;-53
2021/06/19 00:14:00;;;;;;;8.73;3.55;;;;;;;22.87;66.35;101446.27;1678799;84;21025;-57
2021/06/19 00:16:27;;;;;;;14.28;4.65;;;;;;;22.89;66.34;101452.34;1745836;80;21050;-56
2021/06/19 00:18:54;;;;;;;9.20;4.20;;;;;;;22.90;66.34;101440.76;1760962;80;21018;-58
2021/06/19 00:21:21;;;;;;;7.28;4.20;;;;;;;22.90;66.27;101442.55;1747944;80;22056;-56
2021/06/19 00:23:48;;;;;;;8.93;4.20;;;;;;;22.86;66.30;101437.05;1746365;80;21093;-56
2021/06/19 00:26:15;;;;;;;7.28;3.65;;;;;;;22.87;66.39;101443.63;1753304;80;21043;-57
2021/06/19 00:28:41;;;;;;;7.00;4.03;;;;;;;22.89;66.45;101442.19;1743264;81;21608;-55
2021/06/19 00:31:08;;;;;;;9.58;3.90;;;;;;;22.91;66.39;101441.62;1741566;81;21050;-57
2021/06/19 00:33:35;;;;;;;9.98;5.05;;;;;;;22.91;66.22;101451.77;1729637;81;21019;-57
2021/06/19 00:36:02;;;;;;;10.70;4.08;;;;;;;22.92;66.12;101443.31;1758210;80;21069;-56
2021/06/19 00:38:29;;;;;;;6.47;3.72;;;;;;;22.94;66.16;101438.76;1754817;80;21106;-56
2021/06/19 00:40:55;;;;;;;8.93;3.33;;;;;;;22.94;66.17;101438.76;1750954;80;21010;-58
2021/06/19 00:43:22;;;;;;;8.28;3.50;;;;;;;22.93;66.19;101435.28;1747461;81;21073;-56
2021/06/19 00:45:48;;;;;;;8.73;3.67;;;;;;;22.96;66.07;101436.86;1756424;80;21003;-59
2021/06/19 00:48:16;;;;;;;8.60;3.83;;;;;;;22.95;66.10;101440.48;1745211;80;21479;-56
2021/06/19 00:50:43;;;;;;;8.70;3.22;;;;;;;22.94;66.13;101446.72;1747200;81;21012;-60
2021/06/19 00:53:09;;;;;;;9.38;3.40;;;;;;;22.96;65.95;101452.78;1742807;81;21534;-55
2021/06/19 00:55:36;;;;;;;8.83;3.47;;;;;;;22.95;65.91;101461.72;1732766;81;21038;-56
2021/06/19 00:58:03;;;;;;;11.10;4.33;;;;;;;22.95;65.89;101465.23;1743246;81;21043;-59
2021/06/19 01:00:30;;;;;;;6.03;3.27;;;;;;;22.95;65.89;101457.27;1744400;81;21054;-55
2021/06/19 01:02:58;;;;;;;8.18;3.67;;;;;;;22.99;65.97;101465.88;1748066;81;21519;-53
2021/06/19 01:05:26;;;;;;;7.03;3.80;;;;;;;23.01;65.87;101465.31;1753859;80;21042;-52
2021/06/19 01:07:55;;;;;;;7.97;3.67;;;;;;;23.03;65.69;101465.61;1740728;81;21037;-55
2021/06/19 01:10:22;;;;;;;7.70;3.47;;;;;;;23.03;65.66;101466.07;1745439;81;21074;-55
2021/06/19 01:12:50;;;;;;;6.97;3.67;;;;;;;23.03;65.55;101470.05;1744037;81;21058;-54
2021/06/19 01:15:16;;;;;;;7.33;3.70;;;;;;;23.00;65.57;101464.45;1749064;81;21059;-56
2021/06/19 01:17:44;;;;;;;6.53;3.80;;;;;;;23.01;65.64;101458.67;1737327;81;21026;-60
2021/06/19 01:20:14;;;;;;;10.48;4.45;;;;;;;23.01;65.64;101463.98;1735222;82;21062;-54
2021/06/19 01:22:45;;;;;;;8.65;4.53;;;;;;;23.03;65.71;101467.39;1747735;81;21023;-56
2021/06/19 01:25:19;;;;;;;9.05;3.83;;;;;;;23.02;65.62;101464.37;1737790;81;21001;-55
2021/06/19 01:27:48;;;;;;;6.75;3.15;;;;;;;23.03;65.46;101463.42;1731224;81;21518;-53
2021/06/19 01:30:18;;;;;;;11.53;4.33;;;;;;;23.04;65.29;101469.12;1750013;80;21027;-54
2021/06/19 01:32:45;;;;;;;9.55;4.22;;;;;;;23.05;65.12;101465.50;1745646;80;21518;-55
2021/06/19 01:35:13;;;;;;;6.78;3.85;;;;;;;23.04;65.14;101475.76;1737179;81;21508;-55
2021/06/19 01:37:46;;;;;;;5.50;3.20;;;;;;;23.09;64.97;101476.30;1740875;80;21489;-53
2021/06/19 01:40:20;;;;;;;6.85;3.70;;;;;;;23.10;64.84;101474.05;1714863;82;21004;-55
2021/06/19 01:42:47;;;;;;;10.10;3.52;;;;;;;23.12;64.64;101477.45;1660501;85;21124;-55
2021/06/19 01:45:18;;;;;;;7.03;3.17;;;;;;;23.14;64.68;101479.55;1643933;85;21537;-58
2021/06/19 01:47:45;;;;;;;8.20;3.58;;;;;;;23.14;64.67;101477.72;1635984;86;21067;-56
2021/06/19 01:50:18;;;;;;;8.98;4.40;;;;;;;23.16;64.57;101486.94;1629688;86;21541;-56
2021/06/19 01:52:46;;;;;;;10.40;3.55;;;;;;;23.13;64.52;101487.11;1608187;86;21064;-54
2021/06/19 01:55:14;;;;;;;4.65;3.10;;;;;;;23.11;64.41;101479.25;1614768;86;21070;-55
2021/06/19 01:57:41;;;;;;;6.53;3.27;;;;;;;23.11;64.36;101484.56;1632538;86;21531;-56
2021/06/19 02:00:21;;;;;;;7.17;2.95;;;;;;;23.12;64.31;101486.25;1624339;86;21098;-55
2021/06/19 02:02:48;;;;;;;9.30;4.00;;;;;;;23.13;64.31;101485.31;1631545;86;21019;-56
2021/06/19 02:05:15;;;;;;;6.80;3.70;;;;;;;23.13;64.34;101485.31;1629568;86;21153;-62
2021/06/19 02:07:59;;;;;;;12.75;3.60;;;;;;;23.13;64.39;101484.45;1622992;86;21104;-60
2021/06/19 02:10:31;;;;;;;9.70;4.42;;;;;;;23.16;64.33;101489.59;1630997;86;21084;-57
2021/06/19 02:12:59;;;;;;;9.60;4.15;;;;;;;23.16;64.38;101487.77;1628252;86;21034;-57
2021/06/19 02:15:28;;;;;;;8.00;3.60;;;;;;;23.17;64.37;101487.30;1630905;86;21073;-53
2021/06/19 02:17:55;;;;;;;4.87;3.65;;;;;;;23.18;64.25;101490.34;1630025;86;21010;-54
2021/06/19 02:20:24;;;;;;;8.95;4.03;;;;;;;23.19;64.18;101494.69;1638404;85;21061;-54
2021/06/19 02:22:51;;;;;;;7.03;3.58;;;;;;;23.18;64.24;101503.16;1671412;85;21102;-53
2021/06/19 02:25:23;;;;;;;8.53;3.33;;;;;;;23.17;64.34;101501.44;1653222;85;21089;-54
2021/06/19 02:27:58;;;;;;;7.85;3.72;;;;;;;23.17;64.32;101498.78;1661214;84;21077;-53
2021/06/19 02:30:29;;;;;;;7.30;4.10;;;;;;;23.17;64.34;101509.87;1629529;87;21038;-54
2021/06/19 02:32:57;;;;;;;9.10;4.10;;;;;;;23.16;64.40;101510.83;1599816;89;21096;-57
2021/06/19 02:35:27;;;;;;;8.68;3.55;;;;;;;23.18;64.43;101503.63;1595958;89;21105;-54
2021/06/19 02:37:55;;;;;;;8.03;3.92;;;;;;;23.18;64.45;101502.30;1641009;86;21043;-54
2021/06/19 02:40:22;;;;;;;6.83;4.03;;;;;;;23.20;64.40;101504.37;1644212;87;21184;-54
2021/06/19 02:42:48;;;;;;;7.95;4.10;;;;;;;23.23;64.37;101509.48;1648858;86;21052;-54
2021/06/19 02:45:15;;;;;;;8.10;4.05;;;;;;;23.24;64.43;101509.88;1651598;86;21107;-54
2021/06/19 02:47:49;;;;;;;8.03;3.65;;;;;;;23.26;64.36;101512.83;1637080;87;21610;-54
2021/06/19 02:50:18;;;;;;;6.35;4.00;;;;;;;23.27;64.33;101511.00;1551165;90;21056;-54
2021/06/19 02:52:46;;;;;;;9.13;4.28;;;;;;;23.29;64.33;101515.73;1572964;89;21613;-54
2021/06/19 02:55:18;;;;;;;5.22;3.65;;;;;;;23.30;64.28;101518.79;1579380;89;21062;-54
2021/06/19 02:57:45;;;;;;;10.90;4.37;;;;;;;23.29;64.15;101523.23;1586760;89;21114;-54
2021/06/19 03:00:14;;;;;;;8.53;3.47;;;;;;;23.32;63.96;101522.23;1577526;90;21073;-54
2021/06/19 03:02:42;;;;;;;6.35;3.50;;;;;;;23.36;63.75;101535.23;1567781;90;21078;-54
2021/06/19 03:05:11;;;;;;;7.42;4.28;;;;;;;23.36;63.72;101528.59;1580436;89;21147;-54
2021/06/19 03:07:38;;;;;;;8.10;3.58;;;;;;;23.37;63.59;101532.08;1567274;90;21606;-59
2021/06/19 03:10:07;;;;;;;6.90;3.75;;;;;;;23.39;63.63;101539.47;1574371;90;21063;-55
2021/06/19 03:12:34;;;;;;;6.72;3.70;;;;;;;23.38;63.67;101533.80;1568055;90;21538;-53
2021/06/19 03:15:01;;;;;;;5.72;3.20;;;;;;;23.40;63.67;101541.20;1562944;91;21027;-54
2021/06/19 03:17:28;;;;;;;11.10;4.12;;;;;;;23.38;63.78;101546.61;1534964;92;21131;-54
2021/06/19 03:19:54;;;;;;;5.60;3.87;;;;;;;23.41;63.78;101550.89;1520900;93;21090;-54
2021/06/19 03:22:21;;;;;;;6.70;3.30;;;;;;;23.42;63.72;101545.94;1521766;92;21143;-54
2021/06/19 03:24:48;;;;;;;7.28;3.95;;;;;;;23.44;63.52;101553.34;1530600;93;21132;-60
2021/06/19 03:27:16;;;;;;;7.55;3.92;;;;;;;23.44;63.40;101555.99;1496214;93;21099;-56
2021/06/19 03:29:45;;;;;;;11.15;4.15;;;;;;;23.46;63.32;101558.08;1525987;91;21071;-59
2021/06/19 03:32:11;;;;;;;8.50;4.15;;;;;;;23.47;63.18;101562.45;1600158;87;21086;-55
2021/06/19 03:34:41;;;;;;;6.80;3.70;;;;;;;23.47;63.16;101562.92;1600462;87;21109;-55
2021/06/19 03:37:07;;;;;;;6.72;3.92;;;;;;;23.47;63.22;101566.44;1607000;87;21183;-55
2021/06/19 03:39:35;;;;;;;12.13;4.55;;;;;;;23.47;63.27;101565.11;1569189;90;21046;-54
2021/06/19 03:42:03;;;;;;;8.75;4.03;;;;;;;23.46;63.41;101574.02;1592076;88;21061;-54
2021/06/19 03:44:31;;;;;;;9.65;4.42;;;;;;;23.45;63.49;101578.97;1551486;90;21102;-54
2021/06/19 03:46:57;;;;;;;7.25;4.25;;;;;;;23.44;63.68;101577.24;1638848;83;21125;-56
2021/06/19 03:49:24;;;;;;;5.92;3.80;;;;;;;23.44;63.74;101575.45;1682673;83;21042;-61
2021/06/19 03:51:51;;;;;;;6.28;3.98;;;;;;;23.41;63.74;101573.47;1718027;82;21094;-57
2021/06/19 03:54:18;;;;;;;4.70;3.95;;;;;;;23.39;63.92;101576.66;1716832;82;21118;-59
2021/06/19 03:56:45;;;;;;;4.92;3.17;;;;;;;23.36;64.07;101572.87;1708331;82;21545;-54
2021/06/19 03:59:12;;;;;;;6.45;3.70;;;;;;;23.32;64.10;101578.87;1716803;82;21091;-55
2021/06/19 04:01:39;;;;;;;7.08;3.55;;;;;;;23.32;64.14;101584.17;1726975;82;21042;-56
2021/06/19 04:04:06;;;;;;;7.15;3.70;;;;;;;23.32;64.25;101579.33;1708987;82;21039;-56
2021/06/19 04:06:32;;;;;;;6.12;3.52;;;;;;;23.32;64.39;101583.31;1702791;82;21538;-56
2021/06/19 04:08:59;;;;;;;6.45;3.70;;;;;;;23.32;64.43;101581.52;1714904;82;21173;-56
2021/06/19 04:11:27;;;;;;;7.97;3.22;;;;;;;23.34;64.47;101588.92;1714274;82;21026;-58
2021/06/19 04:13:54;;;;;;;6.35;3.25;;;;;;;23.35;64.52;101577.80;1713065;82;21487;-56
2021/06/19 04:16:21;;;;;;;5.33;2.90;;;;;;;23.32;64.55;101588.63;1718071;82;21038;-57
2021/06/19 04:18:49;;;;;;;6.42;3.10;;;;;;;23.32;64.63;101588.63;1742946;81;21093;-56
2021/06/19 04:21:17;;;;;;;6.42;3.17;;;;;;;23.31;64.69;101594.38;1740203;81;21534;-57
2021/06/19 04:23:44;;;;;;;7.00;3.47;;;;;;;23.29;64.74;101594.08;1745253;80;21002;-56
2021/06/19 04:26:11;;;;;;;8.25;4.05;;;;;;;23.28;64.83;101595.04;1747395;80;21046;-59
2021/06/19 04:28:37;;;;;;;5.50;3.22;;;;;;;23.26;65.03;101595.14;1749787;80;21046;-61
2021/06/19 04:31:04;;;;;;;9.23;3.35;;;;;;;23.28;65.02;101596.37;1732364;81;21019;-55
2021/06/19 04:33:31;;;;;;;5.72;3.65;;;;;;;23.25;64.92;101598.73;1758072;80;21496;-54
2021/06/19 04:35:57;;;;;;;5.50;3.22;;;;;;;23.27;65.01;101595.97;1738553;81;21486;-55
2021/06/19 04:38:24;;;;;;;4.47;3.40;;;;;;;23.30;65.04;101598.45;1744351;80;21513;-61
2021/06/19 04:40:56;;;;;;;5.37;3.85;;;;;;;23.29;65.11;101597.59;1745702;80;21042;-55
2021/06/19 04:43:27;;;;;;;9.73;3.62;;;;;;;23.34;65.10;101602.66;1748064;81;21027;-54
2021/06/19 04:45:49;;;;;;;8.78;4.15;;;;;;;23.35;65.12;101596.39;1723223;80;21510;-54
2021/06/19 04:48:17;;;;;;;9.58;4.47;;;;;;;23.37;65.23;101605.12;1748484;80;21042;-58
2021/06/19 04:50:43;;;;;;;11.95;5.40;;;;;;;23.37;65.28;101594.48;1755123;80;21019;-54
2021/06/19 04:53:11;;;;;;;13.10;5.83;;;;;;;23.38;65.38;101598.88;1745054;81;21062;-54
2021/06/19 04:55:38;;;;;;;20.32;5.95;;;;;;;23.38;65.52;101598.41;1746864;81;21010;-57
2021/06/19 04:58:05;;;;;;;14.33;5.80;;;;;;;23.37;65.67;101597.14;1738961;82;21030;-57
2021/06/19 05:00:33;;;;;;;13.85;5.90;;;;;;;23.33;65.92;101595.63;1736972;81;21566;-58
2021/06/19 05:03:00;;;;;;;16.52;6.17;;;;;;;23.34;66.13;101597.35;1749902;81;21572;-58
2021/06/19 05:05:28;;;;;;;11.35;5.15;;;;;;;23.32;66.25;101598.78;1737336;81;21571;-54
2021/06/19 05:07:56;;;;;;;6.22;4.40;;;;;;;23.32;66.48;101600.11;1750592;81;21058;-56
2021/06/19 05:10:23;;;;;;;9.63;5.45;;;;;;;23.32;66.62;101607.22;1738792;81;21132;-54
2021/06/19 05:12:50;;;;;;;14.93;6.85;;;;;;;23.33;66.79;101610.23;1737154;80;21034;-54
2021/06/19 05:15:20;;;;;;;10.00;6.40;;;;;;;23.23;67.20;101609.06;1747494;80;21018;-56
2021/06/19 05:17:46;;;;;;;12.60;5.70;;;;;;;23.16;67.67;101619.69;1741802;81;22187;-54
2021/06/19 05:20:13;;;;;;;9.65;5.33;;;;;;;23.22;67.63;101624.62;1751093;81;21054;-57
2021/06/19 05:22:40;;;;;;;15.32;6.47;;;;;;;23.36;67.25;101614.05;1742875;81;21027;-55
2021/06/19 05:25:08;;;;;;;8.68;5.58;;;;;;;23.40;67.18;101618.22;1739620;81;21018;-55
2021/06/19 05:27:34;;;;;;;8.20;5.37;;;;;;;23.41;67.21;101617.29;1751397;80;21498;-55
2021/06/19 05:30:01;;;;;;;8.20;5.08;;;;;;;23.41;67.17;101617.29;1737449;81;21023;-56
2021/06/19 05:32:28;;;;;;;9.70;5.03;;;;;;;23.42;67.19;101626.95;1748605;80;21100;-57
2021/06/19 05:34:55;;;;;;;8.20;4.90;;;;;;;23.43;67.21;101624.69;1744765;80;21025;-59
2021/06/19 05:37:22;;;;;;;10.63;5.47;;;;;;;23.44;67.28;101625.05;1741580;81;21069;-59
2021/06/19 05:39:50;;;;;;;14.23;6.28;;;;;;;23.49;67.26;101620.33;1746123;80;21079;-58
2021/06/19 05:42:17;;;;;;;11.38;6.28;;;;;;;23.53;67.19;101629.81;1749092;80;21495;-53
2021/06/19 05:44:44;;;;;;;12.40;5.53;;;;;;;23.55;67.22;101633.23;1742361;81;21013;-54
2021/06/19 05:47:11;;;;;;;7.67;4.80;;;;;;;23.58;67.13;101632.16;1756170;80;21070;-55
2021/06/19 05:49:38;;;;;;;9.95;5.20;;;;;;;23.59;66.98;101630.77;1750993;80;21513;-58
2021/06/19 05:52:06;;;;;;;7.33;4.65;;;;;;;23.60;66.96;101640.42;1753245;80;21089;-57
2021/06/19 05:57:00;;;;;;;11.80;5.75;;;;;;;23.60;66.76;101641.75;1728223;82;21070;-55
2021/06/19 05:59:27;;;;;;;14.58;6.47;;;;;;;23.61;66.73;101654.10;1716212;82;21070;-58
2021/06/19 06:01:54;;;;;;;16.97;6.75;;;;;;;23.63;66.78;101652.20;1702363;84;21498;-54
2021/06/19 06:04:21;;;;;;;14.90;6.33;;;;;;;23.67;66.83;101661.70;1662188;85;21019;-55
2021/06/19 06:06:48;;;;;;;13.85;6.65;;;;;;;23.68;66.84;101650.09;1663232;85;21105;-58
2021/06/19 06:09:15;;;;;;;13.98;5.35;;;;;;;23.69;66.88;101650.49;1676783;84;21054;-54
2021/06/19 06:11:43;;;;;;;8.78;5.75;;;;;;;23.72;66.86;101646.30;1697681;84;21070;-54
2021/06/19 06:14:11;;;;;;;8.45;4.92;;;;;;;23.74;66.87;101648.89;1697403;83;21071;-58
2021/06/19 06:16:38;;;;;;;6.78;4.67;;;;;;;23.77;66.94;101646.02;1698247;84;21039;-55
2021/06/19 06:19:05;;;;;;;5.55;4.60;;;;;;;23.78;66.83;101647.25;1669847;85;21106;-55
2021/06/19 06:21:32;;;;;;;6.00;4.78;;;;;;;23.79;66.88;101636.14;1724096;82;21062;-56
2021/06/19 06:23:59;;;;;;;4.90;4.37;;;;;;;23.81;66.88;101642.22;1691981;83;21022;-56
2021/06/19 06:26:26;;;;;;;5.85;4.50;;;;;;;23.83;66.81;101643.84;1658072;85;21031;-56
2021/06/19 06:28:53;;;;;;;6.75;4.50;;;;;;;23.84;66.80;101637.59;1667271;85;21059;-54
2021/06/19 06:31:20;;;;;;;6.40;4.87;;;;;;;23.86;66.71;101641.00;1670667;85;21591;-55
2021/06/19 06:33:47;;;;;;;7.83;4.87;;;;;;;23.87;66.50;101636.05;1719195;82;21041;-54
2021/06/19 06:36:14;;;;;;;5.00;4.25;;;;;;;23.88;66.47;101638.24;1713857;82;21562;-55
2021/06/19 06:38:41;;;;;;;4.37;3.98;;;;;;;23.89;66.36;101640.80;1690817;83;21074;-55
2021/06/19 06:41:08;;;;;;;5.92;3.90;;;;;;;23.90;66.24;101639.86;1705915;82;21039;-58
2021/06/19 06:43:35;;;;;;;6.87;5.17;;;;;;;23.78;66.40;101635.78;1733628;81;21042;-56
2021/06/19 06:46:01;;;;;;;4.92;4.20;;;;;;;23.71;66.56;101632.66;1690631;84;21018;-58
2021/06/19 06:48:29;;;;;;;6.17;4.22;;;;;;;23.79;66.28;101637.01;1666605;85;21075;-58
2021/06/19 06:50:57;;;;;;;6.70;4.35;;;;;;;23.85;65.91;101645.92;1686129;85;21031;-54
2021/06/19 06:53:24;;;;;;;5.80;4.50;;;;;;;23.75;66.25;101644.80;1692757;83;21046;-62
2021/06/19 06:55:52;;;;;;;6.30;4.62;;;;;;;23.75;66.40;101646.13;1687598;83;21586;-57
2021/06/19 06:58:20;;;;;;;8.28;3.80;;;;;;;23.77;66.34;101640.23;1694795;83;21051;-55
2021/06/19 07:00:46;;;;;;;6.25;4.12;;;;;;;23.77;66.32;101641.56;1684795;84;20992;-56
2021/06/19 07:03:13;;;;;;;7.20;4.25;;;;;;;23.80;66.41;101648.50;1739231;82;21030;-55
2021/06/19 07:05:39;;;;;;;5.10;4.25;;;;;;;23.82;66.40;101642.12;1740508;81;21514;-56
2021/06/19 07:08:06;;;;;;;5.67;3.98;;;;;;;23.87;66.59;101644.49;1741673;81;21087;-55
2021/06/19 07:10:34;;;;;;;6.05;4.28;;;;;;;23.89;66.68;101653.22;1740492;81;21018;-62
2021/06/19 07:13:00;;;;;;;6.47;4.40;;;;;;;23.91;66.71;101649.52;1754286;80;21518;-59
2021/06/19 07:15:27;;;;;;;6.60;5.37;;;;;;;23.93;66.59;101644.11;1738765;81;21001;-56
2021/06/19 07:17:54;;;;;;;6.33;5.00;;;;;;;24.10;66.02;101644.79;1758655;81;21027;-58
2021/06/19 07:20:21;;;;;;;5.37;4.42;;;;;;;24.13;65.84;101641.92;1744409;80;21018;-55
2021/06/19 07:22:48;;;;;;;6.10;3.90;;;;;;;24.18;65.78;101638.50;1745117;80;21081;-55
2021/06/19 07:25:15;;;;;;;6.85;3.90;;;;;;;24.21;65.66;101646.27;1747214;81;21030;-55
2021/06/19 07:27:42;;;;;;;4.95;4.33;;;;;;;24.23;65.56;101640.37;1745910;81;21017;-54
2021/06/19 07:30:12;;;;;;;5.22;3.70;;;;;;;24.25;65.52;101641.13;1740058;81;21062;-54
2021/06/19 07:32:38;;;;;;;6.40;3.75;;;;;;;24.27;65.43;101640.19;1740654;80;22651;-54
2021/06/19 07:35:07;;;;;;;4.70;3.65;;;;;;;24.30;65.35;101642.66;1755423;80;21023;-54
2021/06/19 07:37:34;;;;;;;4.20;3.67;;;;;;;24.32;65.38;101635.44;1750636;81;21562;-55
2021/06/19 07:40:01;;;;;;;6.05;4.08;;;;;;;24.35;65.20;101638.74;1751944;80;21026;-60
2021/06/19 07:42:28;;;;;;;6.70;4.95;;;;;;;24.36;65.09;101631.62;1736204;81;21014;-55
2021/06/19 07:44:54;;;;;;;5.72;4.00;;;;;;;24.38;65.09;101641.19;1739598;81;21096;-55
2021/06/19 07:47:21;;;;;;;7.12;3.70;;;;;;;24.42;64.92;101639.20;1737932;81;21039;-55
2021/06/19 07:49:48;;;;;;;4.00;3.60;;;;;;;24.45;64.69;101637.66;1753989;80;21043;-54
2021/06/19 07:52:15;;;;;;;4.45;3.80;;;;;;;24.46;64.68;101634.06;1729716;81;21019;-57
2021/06/19 07:54:41;;;;;;;4.50;4.10;;;;;;;24.49;64.68;101632.51;1738580;80;21545;-54
2021/06/19 07:57:08;;;;;;;6.70;4.00;;;;;;;24.55;64.45;101637.42;1734313;81;21037;-54
2021/06/19 07:59:36;;;;;;;5.78;4.05;;;;;;;24.58;64.34;101631.92;1744279;81;21078;-57
2021/06/19 08:02:05;;;;;;;4.55;3.72;;;;;;;24.61;64.12;101637.02;1756535;80;21074;-55
2021/06/19 08:04:36;;;;;;;3.95;3.50;;;;;;;24.64;64.06;101639.49;1730947;82;21027;-55
2021/06/19 08:07:04;;;;;;;5.67;4.40;;;;;;;24.67;63.97;101634.81;1743250;82;21071;-54
2021/06/19 08:09:31;;;;;;;5.03;3.62;;;;;;;24.69;63.78;101640.05;1748444;81;21110;-54
2021/06/19 08:11:58;;;;;;;5.20;3.65;;;;;;;24.73;63.65;101642.89;1735028;81;21113;-55
2021/06/19 08:14:25;;;;;;;3.55;3.25;;;;;;;24.77;63.71;101646.58;1739407;81;21026;-55
2021/06/19 08:16:55;;;;;;;3.95;3.40;;;;;;;24.84;63.39;101640.37;1741645;81;21031;-56
2021/06/19 08:19:23;;;;;;;3.90;3.60;;;;;;;24.92;63.34;101640.71;1740155;80;21533;-55
2021/06/19 08:21:50;;;;;;;6.67;5.40;;;;;;;24.98;63.24;101636.30;1755016;80;21444;-54
2021/06/19 08:24:17;;;;;;;6.10;4.10;;;;;;;25.02;62.91;101640.45;1745387;80;21498;-59
2021/06/19 08:26:45;;;;;;;7.53;4.37;;;;;;;25.07;62.75;101643.67;1742303;80;21021;-56
2021/06/19 08:29:12;;;;;;;5.40;3.20;;;;;;;25.11;62.66;101639.84;1740951;80;21656;-59
2021/06/19 08:31:41;;;;;;;4.53;3.55;;;;;;;25.15;62.45;101641.34;1746211;81;21016;-57
2021/06/19 08:34:08;;;;;;;5.35;3.17;;;;;;;25.17;62.19;101647.41;1756434;80;21047;-55
2021/06/19 08:36:36;;;;;;;5.05;3.20;;;;;;;25.21;61.96;101638.25;1744766;81;21053;-56
2021/06/19 08:39:04;;;;;;;4.90;3.10;;;;;;;25.27;62.18;101636.50;1760921;80;21023;-56
2021/06/19 08:41:30;;;;;;;4.62;3.25;;;;;;;25.31;61.96;101636.66;1758011;81;21581;-56
2021/06/19 08:43:57;;;;;;;4.15;3.52;;;;;;;25.35;61.81;101634.16;1728786;80;21007;-53
2021/06/19 08:46:24;;;;;;;4.17;2.92;;;;;;;25.38;61.59;101637.09;1729551;81;21501;-57
2021/06/19 08:48:52;;;;;;;5.15;3.10;;;;;;;25.38;61.24;101632.63;1750688;80;21026;-57
2021/06/19 08:51:20;;;;;;;6.92;3.12;;;;;;;25.41;60.86;101636.42;1752993;80;20995;-55
2021/06/19 08:53:49;;;;;;;4.45;2.65;;;;;;;25.41;60.90;101628.94;1749882;80;21033;-54
2021/06/19 08:56:18;;;;;;;3.92;3.00;;;;;;;25.42;60.79;101630.16;1753725;80;21089;-58
2021/06/19 08:58:45;;;;;;;3.35;2.80;;;;;;;25.41;60.85;101627.09;1760750;80;21049;-55
2021/06/19 09:01:13;;;;;;;7.87;3.40;;;;;;;25.40;60.78;101626.70;1747272;80;21042;-54
2021/06/19 09:03:40;;;;;;;4.33;3.40;;;;;;;25.40;60.75;101627.18;1753363;80;21585;-56
2021/06/19 09:06:26;;;;;;;3.98;2.92;;;;;;;25.39;60.81;101626.31;1748471;80;21019;-58
2021/06/19 09:09:16;;;;;;;2.87;2.60;;;;;;;25.37;60.76;101621.58;1697712;83;21054;-57
2021/06/19 09:11:52;;;;;;;6.60;3.72;;;;;;;25.34;60.34;101623.14;1696303;83;21031;-55
2021/06/19 09:14:24;;;;;;;5.00;3.25;;;;;;;25.29;60.52;101630.58;1624417;86;21046;-55
2021/06/19 09:19:37;;;;;;;4.17;3.47;;;;;;;25.25;60.36;101622.91;1566294;90;21152;-55
2021/06/19 09:22:23;;;;;;;4.90;3.52;;;;;;;25.23;60.54;101628.34;1558926;90;21574;-56
2021/06/19 09:24:54;;;;;;;4.65;2.90;;;;;;;25.24;60.57;101624.74;1563750;91;21089;-56
2021/06/19 09:27:38;;;;;;;3.87;3.10;;;;;;;25.26;60.61;101627.29;1546197;91;21069;-57
2021/06/19 09:30:09;;;;;;;4.53;3.02;;;;;;;25.27;60.74;101629.84;1542904;91;21039;-57
2021/06/19 09:32:51;;;;;;;4.47;3.05;;;;;;;25.30;60.83;101632.30;1554731;91;21082;-57
2021/06/19 09:35:36;;;;;;;3.72;3.30;;;;;;;25.34;60.66;101633.80;1550218;91;21073;-56
2021/06/19 09:38:12;;;;;;;4.08;3.30;;;;;;;25.39;60.88;101630.82;1547015;91;21621;-56
2021/06/19 09:40:48;;;;;;;5.65;3.25;;;;;;;25.46;60.74;101627.64;1563485;90;21045;-54
2021/06/19 09:43:26;;;;;;;5.60;3.27;;;;;;;25.53;60.72;101619.58;1561905;91;21157;-54
2021/06/19 09:46:07;;;;;;;3.52;3.22;;;;;;;25.61;60.72;101615.91;1548850;91;21158;-55
2021/06/19 09:48:40;;;;;;;4.00;3.17;;;;;;;25.71;60.54;101616.97;1546632;91;21123;-56
2021/06/19 09:51:24;;;;;;;4.05;2.90;;;;;;;25.79;60.12;101610.60;1523247;92;21055;-55
2021/06/19 09:53:55;;;;;;;7.22;3.05;;;;;;;25.87;59.80;101613.18;1523796;92;21097;-57
2021/06/19 09:56:24;;;;;;;3.37;2.87;;;;;;;25.88;59.54;101606.91;1509796;92;21103;-58
2021/06/19 09:58:55;;;;;;;4.70;2.95;;;;;;;25.93;59.11;101612.73;1524689;93;21133;-58
2021/06/19 10:01:34;;;;;;;3.55;3.00;;;;;;;25.99;58.59;101616.33;1514000;92;21109;-57
2021/06/19 10:04:02;;;;;;;3.52;2.90;;;;;;;26.04;58.73;101614.16;1512414;94;21126;-56
2021/06/19 10:06:29;;;;;;;3.27;2.92;;;;;;;26.08;58.62;101611.67;1509804;92;21067;-54
2021/06/19 10:08:56;;;;;;;6.17;3.12;;;;;;;26.12;58.43;101607.81;1515456;93;21108;-54
2021/06/19 10:11:27;;;;;;;4.37;3.10;;;;;;;26.14;58.29;101606.75;1506102;93;21155;-54
2021/06/19 10:13:57;;;;;;;5.75;3.10;;;;;;;26.16;58.20;101609.30;1495599;94;21074;-56
2021/06/19 10:16:25;;;;;;;3.45;3.15;;;;;;;26.18;57.95;101607.36;1501569;93;21095;-57
2021/06/19 10:18:53;;;;;;;5.08;2.85;;;;;;;26.17;57.93;101590.50;1488338;95;21175;-56
2021/06/19 10:21:21;;;;;;;4.87;3.33;;;;;;;26.17;57.93;101590.50;1491022;95;21190;-59
2021/06/19 10:23:49;;;;;;;3.40;3.10;;;;;;;26.19;58.08;101591.27;1490152;95;21105;-54
2021/06/19 10:26:24;;;;;;;5.10;3.40;;;;;;;26.20;58.11;101589.42;1492792;95;21562;-55
2021/06/19 10:28:56;;;;;;;4.47;2.77;;;;;;;26.22;57.77;101585.69;1505353;94;21082;-55
2021/06/19 10:31:23;;;;;;;5.30;3.62;;;;;;;26.26;57.44;101591.64;1503757;95;21133;-55
2021/06/19 10:33:50;;;;;;;5.90;2.92;;;;;;;26.27;57.40;101588.88;1501131;95;21568;-54
2021/06/19 10:36:17;;;;;;;3.62;3.30;;;;;;;26.29;57.35;101588.76;1501911;94;21628;-58
2021/06/19 10:38:53;;;;;;;6.12;2.95;;;;;;;26.31;57.89;101589.50;1503984;95;21105;-54
2021/06/19 10:41:23;;;;;;;4.87;2.67;;;;;;;26.33;57.89;101585.76;1501455;94;21169;-54
2021/06/19 10:43:51;;;;;;;2.92;2.72;;;;;;;26.36;57.65;101585.98;1528903;93;21109;-58
2021/06/19 10:46:36;;;;;;;5.55;2.75;;;;;;;26.38;57.23;101580.05;1518604;93;21113;-58
2021/06/19 10:49:24;;;;;;;3.62;3.05;;;;;;;26.45;57.18;101581.31;1597441;88;21183;-56
2021/06/19 10:51:55;;;;;;;3.47;2.92;;;;;;;26.45;57.18;101581.31;1601286;88;21603;-57
2021/06/19 10:54:22;;;;;;;4.15;3.20;;;;;;;26.45;57.28;101581.31;1567757;89;21122;-57
2021/06/19 10:56:59;;;;;;;3.58;3.15;;;;;;;26.47;57.24;101578.05;1605676;88;21113;-54
2021/06/19 11:02:02;;;;;;;3.90;2.50;;;;;;;26.43;56.73;101575.23;1617748;86;21911;-57
2021/06/19 11:04:43;;;;;;;2.77;2.20;;;;;;;26.47;56.97;101576.71;1601705;87;21198;-58
2021/06/19 11:07:21;;;;;;;2.77;2.50;;;;;;;26.48;56.49;101575.76;1632961;86;21119;-57
2021/06/19 11:09:48;;;;;;;2.72;2.50;;;;;;;26.49;56.21;101577.44;1603112;88;21103;-57
2021/06/19 11:12:34;;;;;;;4.45;2.80;;;;;;;26.51;56.17;101574.17;1595893;88;21527;-57
2021/06/19 11:15:08;;;;;;;2.92;2.40;;;;;;;26.54;55.83;101574.78;1614651;87;21630;-57
2021/06/19 11:17:38;;;;;;;3.00;2.70;;;;;;;26.59;55.29;101571.30;1589841;88;21046;-57
2021/06/19 11:20:16;;;;;;;2.83;2.55;;;;;;;26.64;54.67;101565.63;1599738;88;21104;-57
2021/06/19 11:22:55;;;;;;;2.50;2.30;;;;;;;26.69;54.47;101566.10;1619004;86;21609;-58
2021/06/19 11:25:40;;;;;;;3.50;2.20;;;;;;;26.72;53.98;101555.23;1644689;85;21024;-57
2021/06/19 11:28:20;;;;;;;3.92;2.20;;;;;;;26.76;53.43;101552.70;1604195;87;21090;-58
2021/06/19 11:30:52;;;;;;;2.80;1.95;;;;;;;26.81;53.16;101549.17;1636863;85;21084;-54
2021/06/19 11:33:27;;;;;;;5.62;2.50;;;;;;;26.91;52.85;101538.17;1585477;89;21121;-57
2021/06/19 11:36:08;;;;;;;4.62;3.20;;;;;;;26.91;52.85;101538.17;1602676;88;21125;-59
2021/06/19 11:38:49;;;;;;;;;;;;;;;26.98;52.68;101534.04;1604753;88;21058;-58
2021/06/19 11:41:23;;;;;;;3.67;2.47;;;;;;;27.07;52.24;101532.00;1608009;88;20578;-54